createdAt,value
2022-09-21T00:01:30.414Z,101194.28
2022-09-21T00:04:03.087Z,101191.81
2022-09-21T00:06:33.777Z,101198.94
2022-09-21T00:09:03.940Z,101202.03
2022-09-21T00:11:33.457Z,101198.25
2022-09-21T00:14:04.465Z,101200.34
2022-09-21T00:16:32.296Z,101195.50
2022-09-21T00:19:00.624Z,101194.13
2022-09-21T00:21:28.391Z,101191.44
2022-09-21T00:23:55.983Z,101201.28
2022-09-21T00:26:25.434Z,101197.63
2022-09-21T00:28:59.823Z,101202.75
2022-09-21T00:31:29.207Z,101204.50
2022-09-21T00:33:58.605Z,101211.22
2022-09-21T00:36:26.847Z,101217.69
2022-09-21T00:38:58.736Z,101211.22
2022-09-21T00:41:27.019Z,101207.69
2022-09-21T00:44:17.250Z,101209.41
2022-09-21T00:46:46.572Z,101201.22
2022-09-21T00:49:16.428Z,101203.53
2022-09-21T00:51:45.183Z,101210.63
2022-09-21T00:54:18.116Z,101207.69
2022-09-21T00:56:45.825Z,101203.97
2022-09-21T00:59:15.137Z,101211.41
2022-09-21T01:01:43.053Z,101205.50
2022-09-21T01:04:13.656Z,101216.91
2022-09-21T01:06:41.687Z,101217.69
2022-09-21T01:09:09.897Z,101212.75
2022-09-21T01:12:01.439Z,101225.59
2022-09-21T01:14:28.644Z,101222.00
2022-09-21T01:17:11.652Z,101219.66
2022-09-21T01:20:15.454Z,101217.69
2022-09-21T01:23:07.417Z,101220.81
2022-09-21T01:25:59.386Z,101227.78
2022-09-21T01:28:54.335Z,101243.59
2022-09-21T01:31:28.623Z,101252.78
2022-09-21T01:34:05.729Z,101271.69
2022-09-21T01:36:34.900Z,101278.69
2022-09-21T01:39:08.096Z,101272.13
2022-09-21T01:41:38.596Z,101278.34
2022-09-21T01:44:14.714Z,101286.16
2022-09-21T01:46:42.554Z,101295.75
2022-09-21T01:49:34.426Z,101304.56
2022-09-21T01:52:40.020Z,101309.16
2022-09-21T01:55:21.014Z,101311.91
2022-09-21T01:57:54.402Z,101315.09
2022-09-21T02:00:22.434Z,101323.94
2022-09-21T02:02:53.850Z,101321.66
2022-09-21T02:05:24.046Z,101328.88
2022-09-21T02:07:53.587Z,101322.69
2022-09-21T02:10:29.655Z,101327.09
2022-09-21T02:13:01.243Z,101330.84
2022-09-21T02:15:40.938Z,101332.56
2022-09-21T02:18:22.294Z,101340.13
2022-09-21T02:20:57.158Z,101328.56
2022-09-21T02:23:37.485Z,101327.06
2022-09-21T02:26:28.975Z,101331.47
2022-09-21T02:29:12.258Z,101335.38
2022-09-21T02:31:51.691Z,101346.69
2022-09-21T02:34:33.520Z,101349.34
2022-09-21T02:37:39.636Z,101348.94
2022-09-21T02:40:48.382Z,101347.00
2022-09-21T02:43:23.185Z,101351.09
2022-09-21T02:46:15.542Z,101341.94
2022-09-21T02:48:54.133Z,101352.19
2022-09-21T02:51:29.606Z,101343.06
2022-09-21T02:53:58.959Z,101354.25
2022-09-21T02:56:27.433Z,101344.03
2022-09-21T02:58:59.595Z,101347.34
2022-09-21T03:01:28.160Z,101349.63
2022-09-21T03:03:55.428Z,101353.88
2022-09-21T03:06:25.545Z,101367.84
2022-09-21T03:08:52.984Z,101361.41
2022-09-21T03:11:20.380Z,101349.16
2022-09-21T03:13:47.623Z,101349.16
2022-09-21T03:16:15.001Z,101342.22
2022-09-21T03:18:44.362Z,101349.19
2022-09-21T03:21:12.450Z,101347.25
2022-09-21T03:23:40.655Z,101350.03
2022-09-21T03:26:08.816Z,101349.41
2022-09-21T03:28:36.110Z,101343.72
2022-09-21T03:31:03.518Z,101351.34
2022-09-21T03:33:30.958Z,101352.09
2022-09-21T03:35:58.398Z,101348.22
2022-09-21T03:38:26.914Z,101357.56
2022-09-21T03:40:58.119Z,101359.41
2022-09-21T03:43:25.699Z,101360.41
2022-09-21T03:45:53.066Z,101357.22
2022-09-21T03:48:21.685Z,101357.09
2022-09-21T03:50:50.183Z,101359.13
2022-09-21T03:53:17.935Z,101369.31
2022-09-21T03:55:45.902Z,101355.56
2022-09-21T03:58:18.589Z,101364.94
2022-09-21T04:00:46.696Z,101362.28
2022-09-21T04:03:13.973Z,101368.84
2022-09-21T04:05:43.910Z,101364.69
2022-09-21T04:08:11.240Z,101376.44
2022-09-21T04:10:40.985Z,101376.50
2022-09-21T04:13:09.045Z,101378.25
2022-09-21T04:15:36.780Z,101378.09
2022-09-21T04:18:05.398Z,101376.88
2022-09-21T04:20:32.702Z,101386.97
2022-09-21T04:23:00.085Z,101381.44
2022-09-21T04:25:30.829Z,101384.59
2022-09-21T04:28:16.746Z,101377.78
2022-09-21T04:30:46.937Z,101377.31
2022-09-21T04:33:14.246Z,101379.50
2022-09-21T04:35:41.503Z,101393.69
2022-09-21T04:38:08.987Z,101390.56
2022-09-21T04:40:36.273Z,101394.28
2022-09-21T04:43:03.616Z,101382.44
2022-09-21T04:45:31.086Z,101385.72
2022-09-21T04:47:58.375Z,101387.16
2022-09-21T04:50:25.681Z,101389.16
2022-09-21T04:53:04.450Z,101389.50
2022-09-21T04:55:32.083Z,101389.28
2022-09-21T04:57:59.322Z,101398.53
2022-09-21T05:00:26.916Z,101404.16
2022-09-21T05:02:54.195Z,101405.19
2022-09-21T05:05:21.566Z,101422.94
2022-09-21T05:07:48.852Z,101415.25
2022-09-21T05:10:16.438Z,101414.75
2022-09-21T05:12:43.887Z,101426.72
2022-09-21T05:15:17.014Z,101418.53
2022-09-21T05:17:44.584Z,101425.53
2022-09-21T05:20:11.879Z,101423.91
2022-09-21T05:22:39.235Z,101423.28
2022-09-21T05:25:07.498Z,101428.34
2022-09-21T05:27:34.725Z,101433.28
2022-09-21T05:30:02.279Z,101428.53
2022-09-21T05:33:01.314Z,101439.16
2022-09-21T05:35:28.583Z,101449.19
2022-09-21T05:38:06.697Z,101441.69
2022-09-21T05:40:34.960Z,101443.25
2022-09-21T05:43:03.317Z,101442.28
2022-09-21T05:45:31.094Z,101445.22
2022-09-21T05:48:11.139Z,101436.28
2022-09-21T05:50:42.211Z,101440.44
2022-09-21T05:53:38.856Z,101440.09
2022-09-21T05:56:24.422Z,101441.63
2022-09-21T05:59:00.615Z,101447.22
2022-09-21T06:01:54.265Z,101456.94
2022-09-21T06:04:21.800Z,101452.50
2022-09-21T06:06:49.667Z,101444.56
2022-09-21T06:09:16.967Z,101459.81
2022-09-21T06:11:44.263Z,101464.31
2022-09-21T06:14:11.522Z,101462.25
2022-09-21T06:16:43.208Z,101462.81
2022-09-21T06:19:13.812Z,101463.28
2022-09-21T06:21:42.140Z,101473.69
2022-09-21T06:24:09.658Z,101472.31
2022-09-21T06:26:36.987Z,101486.28
2022-09-21T06:29:04.569Z,101489.94
2022-09-21T06:31:31.818Z,101491.03
2022-09-21T06:33:59.302Z,101488.63
2022-09-21T06:36:26.596Z,101500.41
2022-09-21T06:38:53.979Z,101490.75
2022-09-21T06:41:21.622Z,101492.75
2022-09-21T06:43:48.967Z,101505.53
2022-09-21T06:46:16.240Z,101503.38
2022-09-21T06:48:43.491Z,101499.34
2022-09-21T06:51:10.715Z,101512.69
2022-09-21T06:53:37.998Z,101506.97
2022-09-21T06:56:10.199Z,101513.06
2022-09-21T06:58:38.607Z,101514.88
2022-09-21T07:01:07.899Z,101516.28
2022-09-21T07:03:35.368Z,101520.19
2022-09-21T07:06:02.961Z,101522.53
2022-09-21T07:11:17.374Z,101522.06
2022-09-21T07:13:45.440Z,101518.94
2022-09-21T07:16:13.235Z,101527.06
2022-09-21T07:18:44.478Z,101523.41
2022-09-21T07:21:12.205Z,101524.69
2022-09-21T07:23:39.417Z,101531.19
2022-09-21T07:26:14.684Z,101536.22
2022-09-21T07:28:42.691Z,101531.31
2022-09-21T07:31:16.535Z,101529.78
2022-09-21T07:33:47.084Z,101533.38
2022-09-21T07:36:14.527Z,101529.13
2022-09-21T07:38:43.675Z,101539.28
2022-09-21T07:41:12.967Z,101533.72
2022-09-21T07:43:40.846Z,101533.13
2022-09-21T07:46:11.483Z,101540.25
2022-09-21T07:48:39.512Z,101542.41
2022-09-21T07:51:09.961Z,101548.13
2022-09-21T07:53:39.582Z,101548.31
2022-09-21T07:56:12.134Z,101550.81
2022-09-21T07:58:58.136Z,101545.44
2022-09-21T08:01:27.074Z,101538.94
2022-09-21T08:03:56.402Z,101547.31
2022-09-21T08:06:27.513Z,101546.38
2022-09-21T08:08:57.830Z,101545.88
2022-09-21T08:11:27.629Z,101540.75
2022-09-21T08:13:57.955Z,101552.16
2022-09-21T08:16:26.856Z,101552.75
2022-09-21T08:18:54.151Z,101550.81
2022-09-21T08:21:21.787Z,101555.28
2022-09-21T08:23:49.660Z,101552.56
2022-09-21T08:26:19.828Z,101558.34
2022-09-21T08:28:49.269Z,101559.34
2022-09-21T08:31:19.691Z,101549.63
2022-09-21T08:33:48.386Z,101542.53
2022-09-21T08:36:15.976Z,101541.22
2022-09-21T08:38:43.221Z,101550.69
2022-09-21T08:41:29.152Z,101556.22
2022-09-21T08:44:10.946Z,101555.94
2022-09-21T08:46:39.246Z,101547.16
2022-09-21T08:49:11.735Z,101553.00
2022-09-21T08:51:50.119Z,101553.16
2022-09-21T08:54:27.148Z,101540.22
2022-09-21T08:57:05.136Z,101553.00
2022-09-21T08:59:34.525Z,101550.75
2022-09-21T09:02:13.738Z,101556.88
2022-09-21T09:04:49.917Z,101557.91
2022-09-21T09:07:42.574Z,101557.53
2022-09-21T09:10:36.157Z,101561.53
2022-09-21T09:13:40.414Z,101557.84
2022-09-21T09:16:26.483Z,101552.53
2022-09-21T09:19:04.265Z,101554.41
2022-09-21T09:21:39.366Z,101556.38
2022-09-21T09:24:33.727Z,101557.63
2022-09-21T09:27:21.984Z,101559.41
2022-09-21T09:30:04.403Z,101557.03
2022-09-21T09:32:59.252Z,101550.09
2022-09-21T09:35:36.259Z,101554.47
2022-09-21T09:38:29.651Z,101555.31
2022-09-21T09:41:19.435Z,101552.00
2022-09-21T09:44:21.666Z,101551.53
2022-09-21T09:47:13.771Z,101554.66
2022-09-21T09:49:53.627Z,101555.00
2022-09-21T09:52:20.918Z,101561.81
2022-09-21T09:54:49.057Z,101551.19
2022-09-21T09:57:25.009Z,101551.06
2022-09-21T09:59:55.590Z,101546.81
2022-09-21T10:02:27.825Z,101551.44
2022-09-21T10:05:05.900Z,101546.53
2022-09-21T10:07:45.993Z,101544.84
2022-09-21T10:10:33.711Z,101539.94
2022-09-21T10:13:12.573Z,101543.00
2022-09-21T10:15:51.541Z,101538.59
2022-09-21T10:18:34.826Z,101532.59
2022-09-21T10:21:06.851Z,101538.28
2022-09-21T10:23:36.548Z,101539.34
2022-09-21T10:26:10.476Z,101521.88
2022-09-21T10:28:38.163Z,101523.34
2022-09-21T10:31:10.041Z,101527.34
2022-09-21T10:33:49.943Z,101524.56
2022-09-21T10:36:37.497Z,101528.88
2022-09-21T10:39:22.156Z,101518.78
2022-09-21T10:42:19.711Z,101518.84
2022-09-21T10:45:06.697Z,101520.25
2022-09-21T10:47:40.741Z,101516.78
2022-09-21T10:50:21.994Z,101529.19
2022-09-21T10:52:53.523Z,101519.13
2022-09-21T10:55:23.168Z,101514.25
2022-09-21T10:57:52.404Z,101513.03
2022-09-21T11:00:25.876Z,101526.59
2022-09-21T11:02:54.945Z,101517.91
2022-09-21T11:05:34.979Z,101519.09
2022-09-21T11:08:15.360Z,101526.34
2022-09-21T11:10:56.044Z,101533.69
2022-09-21T11:13:47.460Z,101516.94
2022-09-21T11:16:38.090Z,101518.16
2022-09-21T11:19:41.800Z,101525.34
2022-09-21T11:22:47.586Z,101507.59
2022-09-21T11:25:45.666Z,101511.53
2022-09-21T11:28:22.200Z,101509.38
2022-09-21T11:30:57.132Z,101514.19
2022-09-21T11:33:37.434Z,101509.72
2022-09-21T11:36:26.144Z,101508.19
2022-09-21T11:39:01.197Z,101505.41
2022-09-21T11:42:18.981Z,101505.00
2022-09-21T11:44:59.614Z,101507.34
2022-09-21T11:47:52.614Z,101509.31
2022-09-21T11:50:31.143Z,101509.03
2022-09-21T11:53:05.968Z,101502.78
2022-09-21T11:55:48.570Z,101507.44
2022-09-21T11:58:27.495Z,101501.16
2022-09-21T12:01:12.099Z,101501.66
2022-09-21T12:04:20.108Z,101486.75
2022-09-21T12:07:02.850Z,101486.19
2022-09-21T12:09:50.049Z,101487.44
2022-09-21T12:12:27.283Z,101490.81
2022-09-21T12:15:08.885Z,101487.69
2022-09-21T12:18:04.600Z,101490.97
2022-09-21T12:21:05.091Z,101485.09
2022-09-21T12:24:03.916Z,101482.03
2022-09-21T12:26:41.823Z,101479.09
2022-09-21T12:29:17.439Z,101475.75
2022-09-21T12:32:02.030Z,101470.00
2022-09-21T12:34:41.956Z,101464.47
2022-09-21T12:37:25.355Z,101471.25
2022-09-21T12:40:19.308Z,101478.78
2022-09-21T12:43:03.395Z,101466.84
2022-09-21T12:45:39.353Z,101460.50
2022-09-21T12:48:12.689Z,101471.09
2022-09-21T12:50:48.527Z,101462.47
2022-09-21T12:53:21.274Z,101455.31
2022-09-21T12:56:09.045Z,101460.44
2022-09-21T12:59:14.818Z,101447.31
2022-09-21T13:01:45.217Z,101452.13
2022-09-21T13:04:16.187Z,101453.28
2022-09-21T13:07:02.024Z,101457.66
2022-09-21T13:09:31.791Z,101457.16
2022-09-21T13:12:04.303Z,101454.22
2022-09-21T13:14:36.210Z,101453.81
2022-09-21T13:17:05.067Z,101451.31
2022-09-21T13:19:36.840Z,101448.53
2022-09-21T13:22:16.062Z,101452.50
2022-09-21T13:24:45.437Z,101453.69
2022-09-21T13:27:15.979Z,101450.97
2022-09-21T13:29:43.223Z,101446.16
2022-09-21T13:32:10.694Z,101447.78
2022-09-21T13:34:45.316Z,101441.84
2022-09-21T13:37:17.227Z,101436.28
2022-09-21T13:39:50.471Z,101441.19
2022-09-21T13:42:30.038Z,101442.59
2022-09-21T13:45:04.757Z,101439.50
2022-09-21T13:47:39.134Z,101434.28
2022-09-21T13:50:27.151Z,101438.69
2022-09-21T13:53:01.135Z,101433.47
2022-09-21T13:55:34.306Z,101432.56
2022-09-21T13:58:18.587Z,101430.13
2022-09-21T14:00:54.161Z,101425.13
2022-09-21T14:03:26.013Z,101432.31
2022-09-21T14:06:07.552Z,101423.16
2022-09-21T14:09:00.571Z,101425.94
2022-09-21T14:11:54.240Z,101427.09
2022-09-21T14:14:31.983Z,101425.97
2022-09-21T14:17:02.312Z,101421.97
2022-09-21T14:19:33.430Z,101425.19
2022-09-21T14:22:03.398Z,101424.00
2022-09-21T14:24:44.848Z,101418.00
2022-09-21T14:27:28.210Z,101427.16
2022-09-21T14:30:05.739Z,101420.81
2022-09-21T14:32:46.031Z,101415.22
2022-09-21T14:35:18.790Z,101414.88
2022-09-21T14:37:52.778Z,101412.75
2022-09-21T14:40:36.584Z,101417.19
2022-09-21T14:43:09.621Z,101413.97
2022-09-21T14:46:16.741Z,101423.88
2022-09-21T14:49:07.256Z,101424.72
2022-09-21T14:52:12.912Z,101415.00
2022-09-21T14:55:02.662Z,101418.53
2022-09-21T14:57:40.710Z,101416.03
2022-09-21T15:00:14.364Z,101424.97
2022-09-21T15:02:44.547Z,101416.28
2022-09-21T15:05:40.995Z,101415.19
2022-09-21T15:09:00.830Z,101410.88
2022-09-21T15:11:42.290Z,101418.19
2022-09-21T15:14:27.169Z,101417.03
2022-09-21T15:16:54.522Z,101417.69
2022-09-21T15:19:27.225Z,101415.66
2022-09-21T15:21:56.935Z,101416.59
2022-09-21T15:24:34.238Z,101417.44
2022-09-21T15:27:10.306Z,101412.66
2022-09-21T15:29:37.981Z,101419.91
2022-09-21T15:32:08.373Z,101417.25
2022-09-21T15:34:35.729Z,101411.81
2022-09-21T15:37:08.302Z,101407.31
2022-09-21T15:39:35.708Z,101407.16
2022-09-21T15:42:22.640Z,101421.81
2022-09-21T15:45:05.993Z,101417.56
2022-09-21T15:47:34.032Z,101415.63
2022-09-21T15:50:01.546Z,101417.13
2022-09-21T15:52:43.131Z,101419.16
2022-09-21T15:55:21.429Z,101416.44
2022-09-21T15:57:51.582Z,101418.41
2022-09-21T16:00:22.224Z,101413.25
2022-09-21T16:02:58.926Z,101420.63
2022-09-21T16:05:26.496Z,101418.13
2022-09-21T16:08:06.411Z,101419.22
2022-09-21T16:10:33.671Z,101419.69
2022-09-21T16:13:41.310Z,101427.06
2022-09-21T16:16:11.146Z,101430.72
2022-09-21T16:18:49.625Z,101433.03
2022-09-21T16:21:32.285Z,101432.38
2022-09-21T16:24:21.217Z,101428.88
2022-09-21T16:27:04.042Z,101443.09
2022-09-21T16:29:41.342Z,101444.84
2022-09-21T16:32:17.472Z,101439.75
2022-09-21T16:34:46.722Z,101446.16
2022-09-21T16:37:32.180Z,101444.06
2022-09-21T16:39:59.750Z,101450.94
2022-09-21T16:42:33.174Z,101442.78
2022-09-21T16:45:01.188Z,101451.69
2022-09-21T16:47:29.170Z,101446.47
2022-09-21T16:50:01.404Z,101447.88
2022-09-21T16:52:30.160Z,101444.94
2022-09-21T16:55:00.295Z,101448.78
2022-09-21T16:57:27.802Z,101459.03
2022-09-21T16:59:55.113Z,101458.72
2022-09-21T17:02:22.391Z,101459.50
2022-09-21T17:04:49.838Z,101454.53
2022-09-21T17:07:18.862Z,101460.97
2022-09-21T17:09:47.840Z,101461.03
2022-09-21T17:12:17.796Z,101452.25
2022-09-21T17:14:47.140Z,101460.94
2022-09-21T17:17:23.999Z,101462.38
2022-09-21T17:19:53.792Z,101468.59
2022-09-21T17:22:21.912Z,101461.06
2022-09-21T17:24:52.281Z,101471.22
2022-09-21T17:27:23.744Z,101474.59
2022-09-21T17:29:51.165Z,101472.22
2022-09-21T17:32:20.863Z,101473.38
2022-09-21T17:34:58.820Z,101475.34
2022-09-21T17:37:27.252Z,101477.31
2022-09-21T17:39:54.842Z,101481.28
2022-09-21T17:42:25.107Z,101476.91
2022-09-21T17:45:04.087Z,101488.97
2022-09-21T17:47:33.657Z,101483.97
2022-09-21T17:50:13.195Z,101491.88
2022-09-21T17:53:00.789Z,101489.28
2022-09-21T17:55:28.853Z,101498.06
2022-09-21T17:58:07.383Z,101506.47
2022-09-21T18:01:01.934Z,101503.59
2022-09-21T18:03:33.368Z,101509.47
2022-09-21T18:06:00.952Z,101518.25
2022-09-21T18:08:33.914Z,101517.41
2022-09-21T18:11:30.679Z,101522.06
2022-09-21T18:14:39.287Z,101523.88
2022-09-21T18:17:44.800Z,101531.69
2022-09-21T18:20:42.681Z,101529.47
2022-09-21T18:23:17.892Z,101539.81
2022-09-21T18:25:49.135Z,101537.41
2022-09-21T18:28:34.499Z,101550.09
2022-09-21T18:31:18.702Z,101542.94
2022-09-21T18:34:24.138Z,101551.03
2022-09-21T18:36:59.274Z,101558.59
2022-09-21T18:39:57.091Z,101560.69
2022-09-21T18:42:40.409Z,101567.16
2022-09-21T18:45:21.227Z,101560.00
2022-09-21T18:47:59.176Z,101571.50
2022-09-21T18:50:35.436Z,101576.44
2022-09-21T18:53:14.667Z,101574.84
2022-09-21T18:55:42.298Z,101574.41
2022-09-21T18:58:16.023Z,101574.16
2022-09-21T19:00:44.253Z,101575.66
2022-09-21T19:03:18.048Z,101579.09
2022-09-21T19:06:20.204Z,101582.75
2022-09-21T19:09:23.234Z,101584.94
2022-09-21T19:12:18.062Z,101588.25
2022-09-21T19:15:12.120Z,101589.28
2022-09-21T19:17:54.726Z,101585.06
2022-09-21T19:20:33.810Z,101587.44
2022-09-21T19:23:13.165Z,101580.94
2022-09-21T19:25:49.353Z,101581.63
2022-09-21T19:28:42.470Z,101578.63
2022-09-21T19:31:13.531Z,101587.47
2022-09-21T19:33:56.434Z,101589.44
2022-09-21T19:36:24.321Z,101591.63
2022-09-21T19:38:51.906Z,101590.94
2022-09-21T19:41:31.653Z,101595.41
2022-09-21T19:44:09.297Z,101591.72
2022-09-21T19:47:06.513Z,101588.41
2022-09-21T19:49:47.210Z,101588.72
2022-09-21T19:52:19.181Z,101589.19
2022-09-21T19:55:05.459Z,101595.63
2022-09-21T19:57:52.883Z,101598.00
2022-09-21T20:00:21.113Z,101598.00
2022-09-21T20:03:14.111Z,101594.91
2022-09-21T20:05:59.685Z,101601.25
2022-09-21T20:08:35.484Z,101598.34
2022-09-21T20:11:10.455Z,101591.94
2022-09-21T20:14:09.886Z,101594.75
2022-09-21T20:16:55.258Z,101597.88
2022-09-21T20:19:46.716Z,101593.72
2022-09-21T20:22:19.628Z,101590.75
2022-09-21T20:25:23.389Z,101587.16
2022-09-21T20:27:53.374Z,101594.97
2022-09-21T20:30:33.167Z,101588.19
2022-09-21T20:33:06.789Z,101592.00
2022-09-21T20:35:35.133Z,101596.31
2022-09-21T20:38:03.270Z,101602.84
2022-09-21T20:40:32.152Z,101598.50
2022-09-21T20:43:03.395Z,101597.91
2022-09-21T20:45:33.291Z,101608.91
2022-09-21T20:48:13.105Z,101618.88
2022-09-21T20:50:49.443Z,101605.91
2022-09-21T20:53:19.072Z,101594.44
2022-09-21T20:55:57.934Z,101605.47
2022-09-21T20:58:25.254Z,101600.53
2022-09-21T21:00:57.963Z,101605.00
2022-09-21T21:03:26.333Z,101605.44
2022-09-21T21:05:53.659Z,101607.19
2022-09-21T21:08:20.926Z,101611.31
2022-09-21T21:10:48.158Z,101612.13
2022-09-21T21:13:15.435Z,101609.72
2022-09-21T21:15:42.718Z,101617.72
2022-09-21T21:18:13.789Z,101614.06
2022-09-21T21:20:41.086Z,101610.28
2022-09-21T21:23:08.682Z,101609.34
2022-09-21T21:25:36.006Z,101612.44
2022-09-21T21:28:03.475Z,101617.59
2022-09-21T21:30:31.496Z,101604.22
2022-09-21T21:32:58.855Z,101607.91
2022-09-21T21:35:26.145Z,101610.22
2022-09-21T21:37:53.419Z,101619.97
2022-09-21T21:40:20.958Z,101612.03
2022-09-21T21:42:48.515Z,101616.75
2022-09-21T21:45:15.824Z,101606.09
2022-09-21T21:47:43.155Z,101620.84
2022-09-21T21:50:11.060Z,101610.88
2022-09-21T21:52:38.693Z,101623.38
2022-09-21T21:55:08.896Z,101621.31
2022-09-21T21:57:36.357Z,101615.81
2022-09-21T22:00:05.653Z,101628.09
2022-09-21T22:02:32.985Z,101615.72
2022-09-21T22:05:00.289Z,101623.03
2022-09-21T22:07:27.522Z,101624.63
2022-09-21T22:09:55.600Z,101623.38
2022-09-21T22:12:22.891Z,101615.44
2022-09-21T22:14:50.156Z,101617.53
2022-09-21T22:17:17.387Z,101615.72
2022-09-21T22:19:45.192Z,101616.22
2022-09-21T22:22:16.113Z,101618.81
2022-09-21T22:24:43.942Z,101600.47
2022-09-21T22:27:11.238Z,101610.66
2022-09-21T22:29:39.547Z,101597.84
2022-09-21T22:32:07.166Z,101606.34
2022-09-21T22:34:34.509Z,101607.41
2022-09-21T22:37:01.752Z,101604.28
2022-09-21T22:39:29.015Z,101601.53
2022-09-21T22:41:59.351Z,101606.66
2022-09-21T22:44:28.763Z,101597.63
2022-09-21T22:46:56.219Z,101601.69
2022-09-21T22:49:23.604Z,101590.19
2022-09-21T22:51:50.807Z,101593.44
2022-09-21T22:54:18.085Z,101587.66
2022-09-21T22:56:45.331Z,101589.59
2022-09-21T22:59:12.722Z,101596.81
2022-09-21T23:01:41.294Z,101598.50
2022-09-21T23:04:11.031Z,101587.75
2022-09-21T23:06:40.703Z,101586.50
2022-09-21T23:09:13.590Z,101593.38
2022-09-21T23:11:43.307Z,101595.56
2022-09-21T23:14:11.585Z,101595.09
2022-09-21T23:16:38.947Z,101589.38
2022-09-21T23:19:07.141Z,101591.88
2022-09-21T23:21:34.350Z,101591.16
2022-09-21T23:24:02.956Z,101588.25
2022-09-21T23:26:34.665Z,101591.13
2022-09-21T23:29:11.826Z,101585.41
2022-09-21T23:31:44.456Z,101594.00
2022-09-21T23:34:12.839Z,101593.06
2022-09-21T23:36:41.206Z,101592.13
2022-09-21T23:39:12.039Z,101590.31
2022-09-21T23:41:39.850Z,101588.13
2022-09-21T23:44:07.600Z,101586.31
2022-09-21T23:46:37.480Z,101584.69
2022-09-21T23:49:05.137Z,101579.78
2022-09-21T23:51:32.535Z,101593.91
2022-09-21T23:54:00.359Z,101593.66
2022-09-21T23:56:28.609Z,101583.25
2022-09-21T23:58:56.084Z,101577.13
